PWSweather.com
Personal Weather Stations
Station Observations
KTXDECATUR
Wildwood, Decatur, TX 76234

WildwoodDecatur, TX 76234

Lat: 33.2634, Lon: -97.6651

Elevation: 800

Station Type: Davis Vantage Pro 2

http://weather.wildwoodnaturist.com

Latest ConditionsUpdated 6:00:00 AM CST Tuesday, Dec 6, 2016
Currently Today's Max Today's Min Today's Average
Temperature 48.1°F8.9°C 48.2°F9.0°C 45.9°F7.7°C 47.5°F8.6°C
Dew Point 47.3°F8.5°C 47.4°F8.6°C 44.8°F7.1°C 46.6°F8.1°C
Winds 2.3 mph NE3.7 kmh NE 8.1 mph SSE13.0 kmh SSE - 2.8 mph 4.5 kmh
Wind Gusts 3.5 mph5.6 kmh 11.5 mph18.5 kmh - -
Humidity 97% 97% 96% 97%
Pressure 29.82 in1009.8 mb 29.82 in1009.8 mb 29.66 in1004.4 mb -
Hour Temp Dew Point Humidity Winds Wind Gusts Pressure Precip Precip Rate Daily Precip Total
06:00 AM 48.1°F8.9°C 47.3°F8.5°C 97% 2.3 mph NE3.7 kmh NE 3.5 mph5.6 kmh 29.82 in1009.8 mb - 0.00 in0.0 mm 0.00 in0.0 mm
05:50 AM 48.2°F9.0°C 47.4°F8.6°C 97% 3.5 mph NE5.6 kmh NE 5.8 mph9.3 kmh 29.81 in1009.5 mb - 0.00 in0.0 mm 0.00 in0.0 mm
05:45 AM 48.2°F9.0°C 47.4°F8.6°C 97% 2.3 mph NE3.7 kmh NE 3.5 mph5.6 kmh 29.80 in1009.1 mb - 0.00 in0.0 mm 0.00 in0.0 mm
05:40 AM 48.2°F9.0°C 47.4°F8.6°C 97% 2.3 mph NE3.7 kmh NE 5.8 mph9.3 kmh 29.80 in1009.1 mb - 0.00 in0.0 mm 0.00 in0.0 mm
05:30 AM 48.2°F9.0°C 47.4°F8.6°C 97% 3.5 mph NE5.6 kmh NE 4.6 mph7.4 kmh 29.77 in1008.1 mb - 0.00 in0.0 mm 0.00 in0.0 mm
05:20 AM 48.2°F9.0°C 47.4°F8.6°C 97% 5.8 mph NE9.3 kmh NE 6.9 mph11.1 kmh 29.78 in1008.5 mb - 0.00 in0.0 mm 0.00 in0.0 mm
05:15 AM 48.2°F9.0°C 47.4°F8.6°C 97% 2.3 mph NNE3.7 kmh NNE 5.8 mph9.3 kmh 29.77 in1008.1 mb - 0.00 in0.0 mm 0.00 in0.0 mm
05:10 AM 48.1°F8.9°C 47.3°F8.5°C 97% 3.5 mph SSE5.6 kmh SSE 5.8 mph9.3 kmh 29.77 in1008.1 mb - 0.00 in0.0 mm 0.00 in0.0 mm
05:00 AM 48.1°F8.9°C 47.3°F8.5°C 97% 1.2 mph SSE1.9 kmh SSE 1.2 mph1.9 kmh 29.76 in1007.8 mb - 0.00 in0.0 mm 0.00 in0.0 mm
04:50 AM 48.1°F8.9°C 47.3°F8.5°C 97% 2.3 mph SSE3.7 kmh SSE 2.3 mph3.7 kmh 29.76 in1007.8 mb - 0.00 in0.0 mm 0.00 in0.0 mm
04:45 AM 48.1°F8.9°C 47.3°F8.5°C 97% 1.2 mph SSE1.9 kmh SSE 5.8 mph9.3 kmh 29.75 in1007.5 mb - 0.00 in0.0 mm 0.00 in0.0 mm
04:40 AM 48.1°F8.9°C 47.3°F8.5°C 97% 2.3 mph SSE3.7 kmh SSE 4.6 mph7.4 kmh 29.75 in1007.5 mb - 0.00 in0.0 mm 0.00 in0.0 mm
04:30 AM 48.1°F8.9°C 47.3°F8.5°C 97% Calm Calm -- 29.74 in1007.1 mb - 0.00 in0.0 mm 0.00 in0.0 mm
04:20 AM 48.1°F8.9°C 47.3°F8.5°C 97% Calm Calm -- 29.74 in1007.1 mb - 0.00 in0.0 mm 0.00 in0.0 mm
04:15 AM 48.0°F8.9°C 47.2°F8.4°C 97% Calm Calm -- 29.74 in1007.1 mb - 0.00 in0.0 mm 0.00 in0.0 mm
04:10 AM 48.0°F8.9°C 47.2°F8.4°C 97% Calm Calm -- 29.74 in1007.1 mb - 0.00 in0.0 mm 0.00 in0.0 mm
04:00 AM 47.9°F8.8°C 47.1°F8.4°C 97% Calm Calm -- 29.73 in1006.8 mb - 0.00 in0.0 mm 0.00 in0.0 mm
03:50 AM 47.9°F8.8°C 47.1°F8.4°C 97% Calm Calm 1.2 mph1.9 kmh 29.72 in1006.4 mb - 0.00 in0.0 mm 0.00 in0.0 mm
03:45 AM 47.9°F8.8°C 47.1°F8.4°C 97% Calm Calm -- 29.71 in1006.1 mb - 0.00 in0.0 mm 0.00 in0.0 mm
03:40 AM 47.9°F8.8°C 47.1°F8.4°C 97% 1.2 mph SSE1.9 kmh SSE 3.5 mph5.6 kmh 29.72 in1006.4 mb - 0.00 in0.0 mm 0.00 in0.0 mm
03:30 AM 47.9°F8.8°C 47.1°F8.4°C 97% Calm Calm -- 29.73 in1006.8 mb - 0.00 in0.0 mm 0.00 in0.0 mm
03:20 AM 47.8°F8.8°C 47.0°F8.3°C 97% Calm Calm -- 29.73 in1006.8 mb - 0.00 in0.0 mm 0.00 in0.0 mm
03:15 AM 47.8°F8.8°C 47.0°F8.3°C 97% Calm Calm -- 29.73 in1006.8 mb - 0.00 in0.0 mm 0.00 in0.0 mm
03:10 AM 47.8°F8.8°C 47.0°F8.3°C 97% Calm Calm -- 29.72 in1006.4 mb - 0.00 in0.0 mm 0.00 in0.0 mm
03:00 AM 47.7°F8.7°C 46.9°F8.3°C 97% Calm Calm 1.2 mph1.9 kmh 29.71 in1006.1 mb - 0.00 in0.0 mm 0.00 in0.0 mm
02:50 AM 47.6°F8.7°C 46.8°F8.2°C 97% 3.5 mph SSE5.6 kmh SSE 4.6 mph7.4 kmh 29.70 in1005.8 mb - 0.00 in0.0 mm 0.00 in0.0 mm
02:45 AM 47.6°F8.7°C 46.8°F8.2°C 97% 5.8 mph SSE9.3 kmh SSE 6.9 mph11.1 kmh 29.70 in1005.8 mb - 0.00 in0.0 mm 0.00 in0.0 mm
02:40 AM 47.6°F8.7°C 46.8°F8.2°C 97% 4.6 mph S7.4 kmh S 6.9 mph11.1 kmh 29.71 in1006.1 mb - 0.00 in0.0 mm 0.00 in0.0 mm
02:30 AM 47.6°F8.7°C 46.8°F8.2°C 97% 4.6 mph S7.4 kmh S 5.8 mph9.3 kmh 29.70 in1005.8 mb - 0.00 in0.0 mm 0.00 in0.0 mm
02:20 AM 47.5°F8.6°C 46.7°F8.2°C 97% 4.6 mph S7.4 kmh S 8.1 mph13.0 kmh 29.69 in1005.4 mb - 0.00 in0.0 mm 0.00 in0.0 mm
02:15 AM 47.5°F8.6°C 46.7°F8.2°C 97% 4.6 mph S7.4 kmh S 6.9 mph11.1 kmh 29.68 in1005.1 mb - 0.00 in0.0 mm 0.00 in0.0 mm
02:10 AM 47.4°F8.6°C 46.6°F8.1°C 97% 4.6 mph S7.4 kmh S 6.9 mph11.1 kmh 29.68 in1005.1 mb - 0.00 in0.0 mm 0.00 in0.0 mm
02:00 AM 47.3°F8.5°C 46.5°F8.1°C 97% 1.2 mph SSE1.9 kmh SSE 2.3 mph3.7 kmh 29.68 in1005.1 mb - 0.00 in0.0 mm 0.00 in0.0 mm
01:50 AM 47.2°F8.4°C 46.4°F8.0°C 97% 4.6 mph S7.4 kmh S 6.9 mph11.1 kmh 29.66 in1004.4 mb - 0.00 in0.0 mm 0.00 in0.0 mm
01:45 AM 47.2°F8.4°C 46.4°F8.0°C 97% 3.5 mph SSE5.6 kmh SSE 9.2 mph14.8 kmh 29.66 in1004.4 mb - 0.00 in0.0 mm 0.00 in0.0 mm
01:40 AM 47.1°F8.4°C 46.3°F7.9°C 97% 3.5 mph S5.6 kmh S 6.9 mph11.1 kmh 29.67 in1004.7 mb - 0.00 in0.0 mm 0.00 in0.0 mm
01:30 AM 47.0°F8.3°C 46.2°F7.9°C 97% 5.8 mph SSE9.3 kmh SSE 9.2 mph14.8 kmh 29.67 in1004.7 mb - 0.00 in0.0 mm 0.00 in0.0 mm
01:20 AM 46.9°F8.3°C 46.1°F7.8°C 97% 3.5 mph SSE5.6 kmh SSE 8.1 mph13.0 kmh 29.66 in1004.4 mb - 0.00 in0.0 mm 0.00 in0.0 mm
01:15 AM 46.9°F8.3°C 45.8°F7.7°C 96% 5.8 mph S9.3 kmh S 8.1 mph13.0 kmh 29.66 in1004.4 mb - 0.00 in0.0 mm 0.00 in0.0 mm
01:10 AM 46.9°F8.3°C 45.8°F7.7°C 96% 3.5 mph S5.6 kmh S 6.9 mph11.1 kmh 29.67 in1004.7 mb - 0.00 in0.0 mm 0.00 in0.0 mm
01:00 AM 46.7°F8.2°C 45.7°F7.6°C 96% 2.3 mph S3.7 kmh S 5.8 mph9.3 kmh 29.67 in1004.7 mb - 0.00 in0.0 mm 0.00 in0.0 mm
12:50 AM 46.6°F8.1°C 45.5°F7.5°C 96% 6.9 mph SE11.1 kmh SE 11.5 mph18.5 kmh 29.67 in1004.7 mb - 0.00 in0.0 mm 0.00 in0.0 mm
12:45 AM 46.5°F8.1°C 45.4°F7.4°C 96% 2.3 mph SSE3.7 kmh SSE 6.9 mph11.1 kmh 29.67 in1004.7 mb - 0.00 in0.0 mm 0.00 in0.0 mm
12:40 AM 46.5°F8.1°C 45.4°F7.4°C 96% 8.1 mph SSE13.0 kmh SSE 9.2 mph14.8 kmh 29.68 in1005.1 mb - 0.00 in0.0 mm 0.00 in0.0 mm
12:30 AM 46.3°F7.9°C 45.2°F7.3°C 96% 5.8 mph SSE9.3 kmh SSE 10.4 mph16.7 kmh 29.68 in1005.1 mb - 0.00 in0.0 mm 0.00 in0.0 mm
12:20 AM 46.1°F7.8°C 45.1°F7.3°C 96% 4.6 mph SE7.4 kmh SE 6.9 mph11.1 kmh 29.68 in1005.1 mb - 0.00 in0.0 mm 0.00 in0.0 mm
12:15 AM 46.1°F7.8°C 45.0°F7.2°C 96% 4.6 mph SE7.4 kmh SE 5.8 mph9.3 kmh 29.68 in1005.1 mb - 0.00 in0.0 mm 0.00 in0.0 mm
12:10 AM 46.0°F7.8°C 44.9°F7.2°C 96% 1.2 mph SSE1.9 kmh SSE 3.5 mph5.6 kmh 29.68 in1005.1 mb - 0.00 in0.0 mm 0.00 in0.0 mm
12:00 AM 45.9°F7.7°C 44.8°F7.1°C 96% 4.6 mph S7.4 kmh S 6.9 mph11.1 kmh 29.68 in1005.1 mb - 0.00 in0.0 mm 0.00 in0.0 mm